Time;durP1;ratioP1;P1;durP2;ratioP2;P2;SDS_P1;SDS_P2;PMS_P1;PMS_P2;Temp;Humidity;BMP_temperature;BMP_pressure;BME280_temperature;BME280_humidity;BME280_pressure;Samples;Min_cycle;Max_cycle;Signal;HPM_P1;HPM_P2
2023/04/11 00:01:56;;;;;;;3.28;1.10;;;;;;;8.04;100.00;99039.63;5043047;28;20099;-89
2023/04/11 00:04:24;;;;;;;2.17;1.17;;;;;;;8.02;100.00;99036.25;5043839;28;20052;-88
2023/04/11 00:06:51;;;;;;;4.45;1.15;;;;;;;7.85;100.00;99016.31;5044953;28;20139;-89
2023/04/11 00:09:18;;;;;;;4.53;1.30;;;;;;;8.08;100.00;99064.59;5044503;28;20064;-89
2023/04/11 00:11:45;;;;;;;3.20;1.20;;;;;;;7.86;100.00;99009.31;5044159;28;20053;-89
2023/04/11 00:14:11;;;;;;;4.05;1.10;;;;;;;7.84;100.00;99021.59;5045517;28;20064;-89
2023/04/11 00:16:40;;;;;;;3.25;1.20;;;;;;;7.80;100.00;99026.13;5046068;28;20049;-89
2023/04/11 00:19:08;;;;;;;2.55;1.00;;;;;;;7.83;100.00;99078.09;5045331;28;20096;-88
2023/04/11 00:21:38;;;;;;;2.00;1.10;;;;;;;8.03;100.00;99055.34;5061998;28;20053;-89
2023/04/11 00:24:07;;;;;;;2.83;1.25;;;;;;;7.90;100.00;99047.34;5049879;28;20052;-89
2023/04/11 00:26:34;;;;;;;1.52;0.93;;;;;;;8.02;100.00;99077.97;5061718;28;20045;-89
2023/04/11 00:29:01;;;;;;;2.25;1.00;;;;;;;7.67;100.00;99022.50;5043643;28;20053;-88
2023/04/11 00:31:27;;;;;;;2.45;1.00;;;;;;;7.40;100.00;99010.84;5043506;28;20052;-88
2023/04/11 00:33:54;;;;;;;1.95;1.00;;;;;;;7.34;100.00;99029.38;5043554;28;20044;-88
2023/04/11 00:36:21;;;;;;;3.55;1.02;;;;;;;7.18;100.00;98990.28;5061711;28;20041;-89
2023/04/11 00:38:48;;;;;;;1.85;1.00;;;;;;;6.88;100.00;98935.44;5062195;28;20504;-89
2023/04/11 00:41:15;;;;;;;1.75;1.00;;;;;;;7.29;100.00;99026.19;5043368;28;20060;-89
2023/04/11 00:43:42;;;;;;;1.52;1.00;;;;;;;7.35;100.00;99051.91;5043591;28;20056;-88
2023/04/11 00:46:09;;;;;;;2.38;1.00;;;;;;;7.30;100.00;99033.06;5043613;28;20483;-89
2023/04/11 00:48:36;;;;;;;2.17;1.02;;;;;;;7.65;100.00;99066.00;5043720;28;20113;-89
2023/04/11 00:51:03;;;;;;;1.75;1.10;;;;;;;7.42;100.00;99036.81;5042802;28;20076;-90
2023/04/11 00:53:31;;;;;;;2.65;1.02;;;;;;;7.70;100.00;99071.81;5043413;28;20049;-89
2023/04/11 00:55:59;;;;;;;2.92;1.00;;;;;;;7.58;100.00;99087.19;5061367;28;20055;-90
2023/04/11 00:58:27;;;;;;;3.75;1.15;;;;;;;7.69;100.00;99123.09;5044351;28;20053;-89
2023/04/11 01:00:54;;;;;;;2.20;1.08;;;;;;;7.72;100.00;99117.75;5043899;28;20056;-89
2023/04/11 01:03:21;;;;;;;1.85;1.13;;;;;;;7.54;100.00;99101.28;5040192;28;20372;-89
2023/04/11 01:05:51;;;;;;;2.08;1.08;;;;;;;7.44;100.00;99075.78;5040696;28;20041;-88
2023/04/11 01:08:19;;;;;;;3.85;1.40;;;;;;;7.66;100.00;99131.06;5040440;28;20049;-89
2023/04/11 01:10:46;;;;;;;3.13;1.17;;;;;;;7.39;100.00;99096.84;5038941;28;20095;-89
2023/04/11 01:13:14;;;;;;;3.60;1.10;;;;;;;7.38;100.00;99080.41;5043539;28;20056;-89
2023/04/11 01:15:41;;;;;;;3.22;1.35;;;;;;;7.32;100.00;99062.47;5043764;28;20048;-89
2023/04/11 01:18:08;;;;;;;4.65;1.00;;;;;;;7.51;100.00;99090.19;5043006;28;20049;-89
2023/04/11 01:20:37;;;;;;;2.15;1.10;;;;;;;7.57;100.00;99110.69;5042296;28;20052;-88
2023/04/11 01:23:05;;;;;;;2.03;1.00;;;;;;;7.43;100.00;99085.34;5060014;28;20312;-89
2023/04/11 01:25:32;;;;;;;3.22;1.15;;;;;;;7.79;100.00;99152.09;5060625;28;20501;-89
2023/04/11 01:27:58;;;;;;;2.65;1.20;;;;;;;7.47;100.00;99096.47;5042579;28;20049;-88
2023/04/11 01:30:25;;;;;;;3.42;1.02;;;;;;;7.50;100.00;99104.13;5060487;28;20071;-89
2023/04/11 01:32:52;;;;;;;3.53;1.00;;;;;;;7.63;100.00;99119.97;5042572;28;20094;-89
2023/04/11 01:35:19;;;;;;;3.63;1.27;;;;;;;7.49;100.00;99107.63;5044308;28;20055;-88
2023/04/11 01:37:46;;;;;;;4.10;1.10;;;;;;;7.49;100.00;99105.03;5043332;28;20502;-89
2023/04/11 01:40:17;;;;;;;4.95;1.02;;;;;;;7.54;100.00;99100.44;5043540;28;20041;-88
2023/04/11 01:42:45;;;;;;;4.60;1.77;;;;;;;7.55;100.00;99134.22;5041338;28;20045;-89
2023/04/11 01:45:13;;;;;;;4.88;1.35;;;;;;;7.46;100.00;99108.66;5042113;28;20041;-87
2023/04/11 01:47:39;;;;;;;5.22;1.27;;;;;;;7.67;100.00;99145.78;5042128;28;20045;-89
2023/04/11 01:50:07;;;;;;;4.25;1.20;;;;;;;7.51;100.00;99118.84;5042964;28;20068;-88
2023/04/11 01:52:33;;;;;;;3.20;1.05;;;;;;;7.45;100.00;99093.94;5058504;28;20132;-89
2023/04/11 01:55:01;;;;;;;2.10;1.00;;;;;;;7.42;100.00;99088.91;5042485;28;20045;-89
2023/04/11 01:57:27;;;;;;;4.10;1.20;;;;;;;7.76;100.00;99142.69;5042210;28;20053;-88
2023/04/11 01:59:54;;;;;;;2.65;1.20;;;;;;;7.78;100.00;99156.50;5055991;28;20045;-89
2023/04/11 02:02:21;;;;;;;3.90;1.10;;;;;;;7.68;100.00;99138.81;5048725;28;20079;-89
2023/04/11 02:04:48;;;;;;;2.10;1.10;;;;;;;7.30;100.00;99079.94;5054208;28;20478;-89
2023/04/11 02:07:15;;;;;;;7.72;2.20;;;;;;;7.59;100.00;99143.56;5043151;28;20075;-88
2023/04/11 02:09:41;;;;;;;2.75;1.10;;;;;;;7.70;100.00;99136.97;5041824;28;20048;-89
2023/04/11 02:12:08;;;;;;;2.95;1.10;;;;;;;7.77;100.00;99144.41;5039577;28;20056;-87
2023/04/11 02:14:44;;;;;;;2.60;1.10;;;;;;;7.87;100.00;99168.19;5039375;28;20048;-88
2023/04/11 02:17:11;;;;;;;2.83;1.10;;;;;;;7.66;100.00;99136.28;5034439;28;20422;-89
2023/04/11 02:19:40;;;;;;;2.33;1.10;;;;;;;7.77;100.00;99144.41;5032128;28;20402;-89
2023/04/11 02:22:10;;;;;;;2.83;1.00;;;;;;;7.71;100.00;99151.69;5035525;28;20116;-87
2023/04/11 02:24:37;;;;;;;1.85;1.00;;;;;;;7.42;100.00;99120.16;5031227;28;20045;-88
2023/04/11 02:27:04;;;;;;;2.20;1.00;;;;;;;7.38;100.00;99127.28;5039543;28;20063;-89
2023/04/11 02:29:31;;;;;;;1.92;0.90;;;;;;;7.45;100.00;99139.97;5039489;28;20063;-90
2023/04/11 02:31:58;;;;;;;2.95;1.08;;;;;;;7.48;100.00;99156.28;5056610;28;20581;-88
2023/04/11 02:34:25;;;;;;;2.33;1.02;;;;;;;7.64;100.00;99169.38;5039902;28;20059;-88
2023/04/11 02:36:52;;;;;;;1.73;0.90;;;;;;;7.51;100.00;99155.31;5040349;28;20045;-88
2023/04/11 02:39:25;;;;;;;4.00;1.10;;;;;;;7.62;100.00;99202.47;5040715;28;20052;-89
2023/04/11 02:41:52;;;;;;;2.38;1.20;;;;;;;7.43;100.00;99166.09;5057099;28;20048;-89
2023/04/11 02:44:19;;;;;;;1.33;1.00;;;;;;;7.04;100.00;99123.72;5056475;28;20049;-89
2023/04/11 02:46:45;;;;;;;2.65;1.00;;;;;;;7.18;100.00;99156.88;5040536;28;20055;-89
2023/04/11 02:49:12;;;;;;;2.45;1.10;;;;;;;6.98;100.00;99125.78;5040574;28;20063;-89
2023/04/11 02:51:39;;;;;;;2.45;1.05;;;;;;;7.11;100.00;99162.47;5039020;28;20053;-88
2023/04/11 02:54:07;;;;;;;2.15;1.00;;;;;;;7.41;100.00;99201.78;5050759;28;20051;-88
2023/04/11 02:56:36;;;;;;;1.98;1.00;;;;;;;7.07;100.00;99166.13;5039015;28;20068;-89
2023/04/11 02:59:05;;;;;;;1.00;0.90;;;;;;;7.02;100.00;99168.94;5039482;28;20056;-89
2023/04/11 03:01:33;;;;;;;1.60;0.93;;;;;;;6.80;100.00;99130.13;5055645;28;20083;-89
2023/04/11 03:03:59;;;;;;;1.45;0.88;;;;;;;7.27;100.00;99214.63;5037314;28;20494;-89
2023/04/11 03:06:27;;;;;;;2.05;0.95;;;;;;;6.81;100.00;99148.22;5039113;28;20047;-89
2023/04/11 03:08:53;;;;;;;2.47;1.25;;;;;;;7.12;100.00;99204.03;5035591;28;20111;-89
2023/04/11 03:11:22;;;;;;;2.90;1.25;;;;;;;7.02;100.00;99184.56;5035447;28;20044;-89
2023/04/11 03:13:48;;;;;;;3.75;1.58;;;;;;;6.58;100.00;99123.31;5038548;28;20056;-89
2023/04/11 03:16:15;;;;;;;2.95;1.10;;;;;;;6.61;100.00;99145.75;5038972;28;20053;-89
2023/04/11 03:18:42;;;;;;;4.18;1.15;;;;;;;6.66;100.00;99167.19;5039750;28;20053;-88
2023/04/11 03:21:10;;;;;;;2.97;1.05;;;;;;;7.06;100.00;99206.09;5038921;28;20516;-89
2023/04/11 03:23:37;;;;;;;4.45;1.30;;;;;;;6.87;100.00;99198.28;5039036;28;20099;-89
2023/04/11 03:26:05;;;;;;;2.65;1.10;;;;;;;6.77;100.00;99158.88;5039440;28;20425;-88
2023/04/11 03:28:32;;;;;;;2.63;1.23;;;;;;;6.90;100.00;99206.78;5042696;28;20057;-88
2023/04/11 03:30:59;;;;;;;4.72;1.30;;;;;;;6.62;100.00;99163.88;5042737;28;20035;-89
2023/04/11 03:33:26;;;;;;;3.80;1.30;;;;;;;6.42;100.00;99149.19;5042777;28;20123;-88
2023/04/11 03:35:53;;;;;;;3.72;1.20;;;;;;;6.32;100.00;99147.06;5039205;28;20051;-88
2023/04/11 03:38:20;;;;;;;4.38;1.27;;;;;;;6.05;100.00;99132.66;5051246;28;20049;-88
2023/04/11 03:40:47;;;;;;;3.25;1.20;;;;;;;6.35;100.00;99144.34;5041881;28;20048;-88
2023/04/11 03:43:15;;;;;;;3.63;1.42;;;;;;;6.40;100.00;99160.56;5043106;28;20044;-89
2023/04/11 03:45:42;;;;;;;4.75;1.20;;;;;;;6.61;100.00;99189.97;5061184;28;20065;-89
2023/04/11 03:48:09;;;;;;;3.25;1.20;;;;;;;6.47;100.00;99182.78;5043901;28;20057;-89
2023/04/11 03:50:36;;;;;;;4.65;1.42;;;;;;;6.45;100.00;99192.41;5043719;28;20128;-89
2023/04/11 03:53:03;;;;;;;2.20;1.20;;;;;;;6.19;100.00;99158.03;5042036;28;20650;-88
2023/04/11 03:55:30;;;;;;;3.63;1.25;;;;;;;6.46;100.00;99201.88;5059655;28;20059;-88
2023/04/11 03:57:57;;;;;;;2.60;1.17;;;;;;;6.29;100.00;99178.44;5042458;28;20053;-88
2023/04/11 04:00:23;;;;;;;3.88;1.20;;;;;;;6.34;100.00;99179.91;5058679;28;20060;-89
2023/04/11 04:02:50;;;;;;;3.92;1.30;;;;;;;6.25;100.00;99183.75;5039479;28;20064;-88
2023/04/11 04:05:17;;;;;;;4.05;1.20;;;;;;;6.10;100.00;99161.03;5039090;28;20099;-89
2023/04/11 04:07:44;;;;;;;4.10;1.20;;;;;;;6.27;100.00;99186.28;5055616;28;20060;-88
2023/04/11 04:10:11;;;;;;;5.00;1.30;;;;;;;6.18;100.00;99197.94;5058492;28;20067;-89
2023/04/11 04:12:38;;;;;;;5.95;1.20;;;;;;;6.05;100.00;99179.41;5040991;28;20057;-88
2023/04/11 04:15:06;;;;;;;5.70;1.35;;;;;;;6.20;100.00;99210.88;5040374;28;20053;-89
2023/04/11 04:17:32;;;;;;;3.60;1.30;;;;;;;6.11;100.00;99201.72;5035468;28;20045;-89
2023/04/11 04:19:59;;;;;;;2.45;1.15;;;;;;;6.30;100.00;99230.31;5040169;28;20048;-89
2023/04/11 04:22:28;;;;;;;5.40;1.38;;;;;;;6.22;100.00;99245.41;5043280;28;20053;-87
2023/04/11 04:24:56;;;;;;;4.50;1.45;;;;;;;5.96;100.00;99189.38;5041272;28;20045;-88
2023/04/11 04:27:31;;;;;;;3.55;1.10;;;;;;;6.14;100.00;99214.56;5059746;28;20094;-88
2023/04/11 04:29:58;;;;;;;2.33;1.10;;;;;;;6.11;100.00;99203.44;5041680;28;20068;-88
2023/04/11 04:32:30;;;;;;;4.40;1.33;;;;;;;5.88;100.00;99167.16;5058325;28;20076;-88
2023/04/11 04:34:57;;;;;;;2.30;1.20;;;;;;;6.16;100.00;99201.50;5041045;28;20524;-88
2023/04/11 04:37:25;;;;;;;4.20;1.25;;;;;;;6.40;100.00;99243.78;5040003;28;20048;-89
2023/04/11 04:39:54;;;;;;;4.13;1.40;;;;;;;6.18;100.00;99212.66;5041968;28;20529;-89
2023/04/11 04:42:26;;;;;;;6.05;1.50;;;;;;;6.41;100.00;99242.84;5040398;28;20458;-89
2023/04/11 04:44:54;;;;;;;5.32;1.20;;;;;;;6.12;100.00;99199.94;5036328;28;20068;-88
2023/04/11 04:47:23;;;;;;;3.78;1.25;;;;;;;6.19;100.00;99215.19;5033472;28;20108;-86
2023/04/11 04:49:56;;;;;;;2.95;1.40;;;;;;;6.00;100.00;99206.50;5056138;28;20313;-87
2023/04/11 04:52:24;;;;;;;2.47;1.40;;;;;;;6.37;100.00;99256.91;5037582;28;20053;-86
2023/04/11 04:54:52;;;;;;;8.70;1.42;;;;;;;6.26;100.00;99246.97;5039559;28;20045;-86
2023/04/11 04:57:18;;;;;;;4.45;1.27;;;;;;;6.38;100.00;99256.00;5036516;28;20049;-86
2023/04/11 04:59:45;;;;;;;4.30;1.40;;;;;;;6.07;100.00;99228.72;5055738;28;20049;-89
2023/04/11 05:02:12;;;;;;;3.78;1.48;;;;;;;6.17;100.00;99268.16;5039608;28;20048;-87
2023/04/11 05:04:40;;;;;;;4.03;1.20;;;;;;;5.75;100.00;99228.31;5040372;28;20060;-88
2023/04/11 05:07:07;;;;;;;2.08;1.10;;;;;;;5.52;100.00;99205.88;5040570;28;20045;-89
2023/04/11 05:09:34;;;;;;;5.13;1.20;;;;;;;5.86;100.00;99275.47;5057814;28;20053;-88
2023/04/11 05:12:01;;;;;;;3.92;1.30;;;;;;;5.62;100.00;99227.97;5056954;28;20055;-89
2023/04/11 05:14:28;;;;;;;5.30;1.88;;;;;;;5.48;100.00;99205.19;5057400;28;20060;-88
2023/04/11 05:16:54;;;;;;;1.63;1.10;;;;;;;5.66;100.00;99244.28;5039638;28;20471;-88
2023/04/11 05:19:21;;;;;;;2.70;1.27;;;;;;;5.37;100.00;99209.13;5039959;28;20099;-89
2023/04/11 05:21:48;;;;;;;5.10;1.48;;;;;;;5.43;100.00;99237.44;5040614;28;20049;-89
2023/04/11 05:24:15;;;;;;;2.05;1.20;;;;;;;5.26;100.00;99223.38;5048530;28;20150;-89
2023/04/11 05:26:42;;;;;;;2.05;1.00;;;;;;;5.59;100.00;99264.44;5039540;28;20028;-89
2023/04/11 05:29:10;;;;;;;4.00;1.20;;;;;;;5.64;100.00;99274.66;4991985;28;1280260;-88
2023/04/11 05:31:37;;;;;;;4.55;1.88;;;;;;;5.30;100.00;99221.50;5027723;28;20056;-87
2023/04/11 05:34:04;;;;;;;2.42;1.10;;;;;;;5.58;100.00;99269.69;5057104;28;20045;-88
2023/04/11 05:36:31;;;;;;;2.10;1.10;;;;;;;5.51;100.00;99267.38;5040756;28;20052;-88
2023/04/11 05:38:57;;;;;;;2.97;1.40;;;;;;;5.66;100.00;99285.81;5040382;28;20146;-87
2023/04/11 05:41:25;;;;;;;4.45;1.10;;;;;;;5.55;100.00;99272.44;5040249;28;20395;-87
2023/04/11 05:43:52;;;;;;;2.45;1.10;;;;;;;5.48;100.00;99254.50;5056999;28;20052;-88
2023/04/11 05:46:19;;;;;;;5.03;1.30;;;;;;;5.43;100.00;99235.66;5040299;28;20049;-88
2023/04/11 05:48:46;;;;;;;2.75;1.20;;;;;;;5.37;100.00;99235.94;5058081;28;20056;-88
2023/04/11 05:51:13;;;;;;;4.90;1.30;;;;;;;5.73;100.00;99292.47;5057698;28;20045;-88
2023/04/11 05:53:40;;;;;;;1.90;1.20;;;;;;;5.88;100.00;99309.19;5036282;28;20054;-88
2023/04/11 05:56:07;;;;;;;3.50;1.15;;;;;;;5.61;100.00;99286.03;5039611;28;20337;-88
2023/04/11 05:58:35;;;;;;;4.55;1.30;;;;;;;5.66;100.00;99307.44;5040600;28;20075;-88
2023/04/11 06:01:02;;;;;;;4.38;1.13;;;;;;;5.53;100.00;99275.09;5056855;28;20517;-88
2023/04/11 06:03:29;;;;;;;3.20;1.20;;;;;;;5.14;100.00;99210.91;5039857;28;20052;-88
2023/04/11 06:05:56;;;;;;;4.00;1.40;;;;;;;5.20;100.00;99221.00;5040180;28;20449;-88
2023/04/11 06:08:23;;;;;;;3.65;1.10;;;;;;;5.69;100.00;99288.31;5039655;28;20499;-88
2023/04/11 06:10:50;;;;;;;5.28;1.10;;;;;;;5.51;100.00;99267.38;5038902;28;20045;-87
2023/04/11 06:13:16;;;;;;;6.03;1.42;;;;;;;5.98;100.00;99333.06;5038591;28;20048;-87
2023/04/11 06:15:43;;;;;;;4.43;1.40;;;;;;;5.88;100.00;99311.78;5039464;28;20049;-87
2023/04/11 06:18:11;;;;;;;3.88;1.27;;;;;;;6.09;100.00;99346.44;5036938;28;20076;-87
2023/04/11 06:20:38;;;;;;;3.72;1.35;;;;;;;5.97;100.00;99308.81;5054558;28;20061;-87
2023/04/11 06:23:05;;;;;;;2.90;1.10;;;;;;;5.92;100.00;99295.16;5036788;28;20410;-87
2023/04/11 06:25:31;;;;;;;3.50;1.25;;;;;;;5.67;100.00;99244.22;5040827;28;20067;-86
2023/04/11 06:27:58;;;;;;;4.28;1.40;;;;;;;6.09;100.00;99302.25;5040755;28;20470;-86
2023/04/11 06:30:25;;;;;;;3.22;1.40;;;;;;;6.34;100.00;99345.41;5035770;28;20049;-86
2023/04/11 06:32:52;;;;;;;7.28;2.60;;;;;;;6.27;100.00;99321.44;5036576;28;20053;-87
2023/04/11 06:35:23;;;;;;;11.10;2.70;;;;;;;6.19;100.00;99305.31;5036264;28;20048;-87
2023/04/11 06:37:51;;;;;;;14.68;4.15;;;;;;;6.27;100.00;99319.69;5036438;28;20098;-88
2023/04/11 06:40:19;;;;;;;12.45;3.45;;;;;;;6.20;100.00;99281.88;5028003;28;20083;-87
2023/04/11 06:42:46;;;;;;;9.85;3.00;;;;;;;6.33;100.00;99289.16;5047552;28;20041;-88
2023/04/11 06:45:13;;;;;;;11.10;3.15;;;;;;;6.71;100.00;99333.41;5042607;28;20056;-87
2023/04/11 06:47:40;;;;;;;7.05;2.13;;;;;;;6.33;100.00;99273.53;5039215;28;20040;-87
2023/04/11 06:50:07;;;;;;;5.55;1.65;;;;;;;6.78;100.00;99321.81;5037252;28;20510;-87
2023/04/11 06:52:34;;;;;;;7.47;1.80;;;;;;;6.67;100.00;99303.25;5053806;28;20137;-88
2023/04/11 06:55:00;;;;;;;7.07;2.17;;;;;;;6.72;100.00;99316.91;5050599;28;20064;-88
2023/04/11 06:57:27;;;;;;;5.53;1.50;;;;;;;7.35;100.00;99281.03;5048489;28;20320;-88
2023/04/11 06:59:54;;;;;;;4.07;1.30;;;;;;;9.08;100.00;99321.88;5038961;28;20055;-88
2023/04/11 07:02:23;;;;;;;6.20;1.58;;;;;;;9.56;100.00;99322.75;5035788;28;20052;-88
2023/04/11 07:04:51;;;;;;;4.53;1.33;;;;;;;9.55;100.00;99321.06;5054406;28;20505;-88
2023/04/11 07:07:18;;;;;;;3.92;1.17;;;;;;;10.12;100.00;99350.97;5037527;28;20372;-88
2023/04/11 07:09:46;;;;;;;4.55;1.25;;;;;;;10.00;100.00;99323.75;5055282;28;20048;-88
2023/04/11 07:12:13;;;;;;;3.95;1.10;;;;;;;10.90;100.00;99335.03;5037079;28;20048;-88
2023/04/11 07:14:39;;;;;;;6.53;1.20;;;;;;;11.00;100.00;99323.91;5036957;28;20131;-88
2023/04/11 07:17:06;;;;;;;5.22;1.38;;;;;;;11.11;100.00;99311.94;5037672;28;20051;-88
2023/04/11 07:19:33;;;;;;;2.85;1.10;;;;;;;11.48;100.00;99341.06;5032193;28;20064;-88
2023/04/11 07:22:00;;;;;;;4.32;1.20;;;;;;;11.32;100.00;99334.16;5034072;28;20045;-86
2023/04/11 07:24:29;;;;;;;4.93;1.30;;;;;;;11.31;100.00;99313.28;5035794;28;20049;-87
2023/04/11 07:27:00;;;;;;;3.90;1.10;;;;;;;11.99;100.00;99369.28;5033813;28;20464;-89
2023/04/11 07:29:27;;;;;;;5.45;1.35;;;;;;;12.03;100.00;99321.75;5055093;28;20049;-88
2023/04/11 07:31:54;;;;;;;6.70;1.40;;;;;;;11.64;100.00;99270.97;5036331;28;20122;-89
2023/04/11 07:34:21;;;;;;;3.83;1.00;;;;;;;11.72;100.00;99286.19;5035705;28;20045;-88
2023/04/11 07:36:48;;;;;;;3.60;0.95;;;;;;;11.98;100.00;99329.09;5032712;28;20056;-88
2023/04/11 07:39:15;;;;;;;3.72;0.90;;;;;;;12.48;100.00;99342.41;5035713;28;20052;-87
2023/04/11 07:41:43;;;;;;;4.50;1.20;;;;;;;13.02;100.00;99368.47;5035914;28;20044;-86
2023/04/11 07:44:10;;;;;;;6.18;1.20;;;;;;;13.32;100.00;99359.41;5035738;28;20128;-87
2023/04/11 07:46:37;;;;;;;3.92;1.10;;;;;;;13.38;100.00;99381.78;5035405;28;20072;-88
2023/04/11 07:49:04;;;;;;;2.17;0.80;;;;;;;13.33;100.00;99376.00;5043569;28;20055;-87
2023/04/11 07:51:31;;;;;;;5.55;0.90;;;;;;;12.79;100.00;99338.53;5052730;28;20498;-89
2023/04/11 07:53:58;;;;;;;6.75;1.10;;;;;;;12.64;100.00;99311.56;5053245;28;20049;-89
2023/04/11 07:56:25;;;;;;;6.00;1.33;;;;;;;12.86;99.61;99304.81;5052994;28;20542;-89
2023/04/11 07:58:52;;;;;;;4.70;1.10;;;;;;;13.28;100.00;99344.78;5035607;28;20056;-89
2023/04/11 08:01:24;;;;;;;3.58;0.90;;;;;;;13.30;99.73;99329.72;5030344;28;20140;-89
2023/04/11 08:03:55;;;;;;;5.00;1.00;;;;;;;13.03;100.00;99335.13;5034392;28;20073;-88
2023/04/11 08:06:22;;;;;;;4.05;1.10;;;;;;;13.00;100.00;99317.81;5035193;28;20080;-88
2023/04/11 08:08:49;;;;;;;2.38;0.80;;;;;;;12.73;100.00;99412.50;5052126;28;20056;-88
2023/04/11 08:11:19;;;;;;;5.15;1.17;;;;;;;12.48;100.00;99318.78;5051117;28;20126;-87
2023/04/11 08:13:46;;;;;;;5.65;1.33;;;;;;;12.41;100.00;99360.38;5017421;28;20053;-88
2023/04/11 08:16:14;;;;;;;6.70;1.30;;;;;;;12.18;100.00;99382.88;5051119;28;20049;-88
2023/04/11 08:18:41;;;;;;;6.82;1.35;;;;;;;12.57;100.00;99396.94;5039037;28;20496;-87
2023/04/11 08:21:10;;;;;;;5.55;1.52;;;;;;;12.14;100.00;99374.34;5039741;28;20052;-87
2023/04/11 08:23:41;;;;;;;2.78;0.80;;;;;;;12.98;100.00;99398.53;5055672;28;20053;-87
2023/04/11 08:26:10;;;;;;;6.45;1.60;;;;;;;12.87;98.29;99349.34;5041691;28;20059;-88
2023/04/11 08:28:37;;;;;;;4.53;1.00;;;;;;;13.40;95.83;99343.06;5039442;28;20072;-87
2023/04/11 08:31:09;;;;;;;1.67;0.82;;;;;;;13.73;85.83;99391.56;5039258;28;20059;-86
2023/04/11 08:37:17;;;;;;;4.53;1.20;;;;;;;13.64;91.78;99393.06;5056602;28;20055;-89
2023/04/11 08:39:44;;;;;;;3.35;1.00;;;;;;;13.50;88.76;99354.63;5059277;28;20489;-89
2023/04/11 08:42:24;;;;;;;5.35;1.38;;;;;;;13.76;86.28;99399.25;5040455;28;20051;-89
2023/04/11 08:44:59;;;;;;;5.63;1.13;;;;;;;13.85;85.76;99417.00;5042125;28;20120;-88
2023/04/11 08:47:26;;;;;;;5.57;1.10;;;;;;;13.69;84.99;99348.88;5057008;28;20478;-86
2023/04/11 08:49:53;;;;;;;4.68;1.17;;;;;;;14.11;88.33;99399.31;5055294;28;20052;-86
2023/04/11 08:52:20;;;;;;;5.35;1.15;;;;;;;13.96;79.87;99367.06;5038050;28;20054;-87
2023/04/11 08:54:47;;;;;;;2.00;0.90;;;;;;;13.96;79.60;99374.94;5038138;28;20403;-87
2023/04/11 08:57:27;;;;;;;3.47;0.93;;;;;;;14.05;82.40;99355.84;5050715;28;20475;-85
2023/04/11 08:59:55;;;;;;;6.95;1.13;;;;;;;13.66;80.24;99355.19;5054330;28;20399;-86
2023/04/11 09:02:22;;;;;;;3.83;1.10;;;;;;;13.91;81.55;99387.59;5053673;28;20064;-86
2023/04/11 09:04:50;;;;;;;4.00;1.10;;;;;;;13.94;83.59;99368.13;5036424;28;20087;-87
2023/04/11 09:07:18;;;;;;;4.63;1.10;;;;;;;13.96;82.50;99366.22;5029125;28;20128;-87
2023/04/11 09:09:45;;;;;;;5.30;1.25;;;;;;;13.88;79.10;99398.34;5036786;28;20445;-87
2023/04/11 09:12:12;;;;;;;8.32;1.10;;;;;;;13.57;76.36;99361.13;5035948;28;20056;-89
2023/04/11 09:14:42;;;;;;;3.30;1.00;;;;;;;13.44;76.33;99358.53;5037002;28;20079;-88
2023/04/11 09:17:12;;;;;;;5.47;1.35;;;;;;;12.71;74.25;99325.94;5045610;28;20080;-84
2023/04/11 09:19:43;;;;;;;3.63;1.13;;;;;;;13.28;77.52;99355.28;5054413;28;20092;-88
2023/04/11 09:22:14;;;;;;;4.95;1.10;;;;;;;13.34;77.94;99340.91;5053837;28;20124;-87
2023/04/11 09:24:41;;;;;;;4.63;1.15;;;;;;;12.94;82.79;99349.75;5059536;28;20490;-87
2023/04/11 09:27:18;;;;;;;2.63;0.80;;;;;;;13.52;81.01;99399.22;5038287;28;20052;-88
2023/04/11 09:29:47;;;;;;;2.50;1.00;;;;;;;13.53;77.48;99380.69;5055624;28;20513;-90
2023/04/11 09:32:32;;;;;;;2.47;0.90;;;;;;;13.53;77.87;99366.69;5039906;28;20041;-90
2023/04/11 09:35:22;;;;;;;3.92;1.10;;;;;;;14.03;74.76;99399.03;5038016;28;20048;-88
2023/04/11 09:37:51;;;;;;;4.07;0.90;;;;;;;13.96;77.19;99389.91;5025161;28;20454;-88
2023/04/11 09:40:21;;;;;;;1.42;0.80;;;;;;;13.96;76.25;99376.75;5042183;28;20048;-89
2023/04/11 09:42:59;;;;;;;5.10;1.00;;;;;;;13.85;77.62;99346.78;5037201;28;20076;-89
2023/04/11 09:45:27;;;;;;;2.13;0.80;;;;;;;13.94;75.20;99368.97;5036903;28;20056;-90
2023/04/11 09:47:56;;;;;;;4.68;1.08;;;;;;;13.61;78.15;99341.53;5034450;28;20053;-83
2023/04/11 09:50:25;;;;;;;5.20;1.20;;;;;;;13.85;76.14;99361.75;5034528;28;20179;-85
2023/04/11 09:52:54;;;;;;;3.33;0.90;;;;;;;13.88;76.16;99372.03;5034757;28;20067;-83
2023/04/11 09:55:24;;;;;;;3.72;1.00;;;;;;;13.82;77.93;99336.50;5054156;28;20490;-83
2023/04/11 09:57:53;;;;;;;4.55;1.00;;;;;;;13.99;76.21;99335.25;5034549;28;20056;-83
2023/04/11 10:00:23;;;;;;;2.65;0.80;;;;;;;14.28;75.48;99347.19;5026444;28;20049;-83
2023/04/11 10:02:52;;;;;;;2.10;0.80;;;;;;;14.27;75.79;99367.44;5051758;28;20045;-83
2023/04/11 10:05:25;;;;;;;2.15;0.75;;;;;;;14.21;77.24;99325.75;5040301;28;20059;-84
2023/04/11 10:08:04;;;;;;;;;;;;;;;14.34;79.20;99370.41;5041725;28;20053;-88
2023/04/11 10:10:31;;;;;;;1.65;0.80;;;;;;;14.61;77.95;99339.41;5037861;28;19921;-88
2023/04/11 10:12:58;;;;;;;0.88;0.70;;;;;;;14.37;73.74;99293.84;5033575;28;20077;-85
2023/04/11 10:15:25;;;;;;;1.58;0.80;;;;;;;14.28;72.66;99311.19;5039668;28;20049;-84
2023/04/11 10:18:12;;;;;;;2.85;0.80;;;;;;;14.44;73.20;99361.72;5043239;28;20052;-84
2023/04/11 10:20:44;;;;;;;1.75;0.70;;;;;;;14.66;72.72;99365.41;5033667;28;20067;-85
2023/04/11 10:23:12;;;;;;;4.35;0.80;;;;;;;14.70;74.35;99371.28;5034648;28;20060;-85
2023/04/11 10:25:50;;;;;;;0.68;0.68;;;;;;;14.53;71.56;99347.00;5052495;28;20409;-84
2023/04/11 10:28:29;;;;;;;2.42;0.70;;;;;;;14.78;75.46;99361.84;5053150;28;20045;-85
2023/04/11 10:31:03;;;;;;;0.93;0.70;;;;;;;15.06;74.28;99372.03;5052197;28;20053;-84
2023/04/11 10:33:32;;;;;;;2.55;0.82;;;;;;;14.84;72.39;99331.53;5034362;28;20102;-84
2023/04/11 10:36:11;;;;;;;2.13;0.80;;;;;;;15.15;73.63;99356.31;5052840;28;20053;-84
2023/04/11 10:38:46;;;;;;;1.73;0.82;;;;;;;15.30;73.76;99362.19;5035512;28;20438;-84
2023/04/11 10:41:24;;;;;;;3.60;0.80;;;;;;;15.30;70.98;99353.44;5039207;28;20049;-84
2023/04/11 10:43:51;;;;;;;0.95;0.70;;;;;;;14.97;71.91;99297.97;5034562;28;20425;-84
2023/04/11 10:46:20;;;;;;;2.13;0.70;;;;;;;14.77;69.96;99373.31;5054594;28;20041;-85
2023/04/11 10:49:01;;;;;;;2.53;0.90;;;;;;;14.76;72.21;99333.91;5051013;28;20049;-84
2023/04/11 10:51:30;;;;;;;2.15;0.77;;;;;;;15.04;71.06;99366.03;5041174;28;20045;-84
2023/04/11 10:53:58;;;;;;;2.30;0.75;;;;;;;15.47;70.64;99357.34;5028044;28;20045;-84
2023/04/11 10:56:49;;;;;;;2.92;0.75;;;;;;;15.24;68.36;99344.19;5034143;28;20053;-84
2023/04/11 10:59:31;;;;;;;1.63;0.73;;;;;;;14.97;69.25;99345.41;5032884;28;20491;-84
2023/04/11 11:02:02;;;;;;;2.15;0.80;;;;;;;15.22;67.87;99343.47;5034187;28;20055;-85
2023/04/11 11:04:36;;;;;;;1.05;0.65;;;;;;;15.04;70.13;99271.97;5048226;28;20052;-85
2023/04/11 11:07:04;;;;;;;1.38;0.70;;;;;;;15.84;68.60;99343.88;5035123;28;20049;-89
2023/04/11 11:09:33;;;;;;;0.80;0.70;;;;;;;15.27;68.01;99337.84;5038648;28;20159;-90
2023/04/11 11:12:07;;;;;;;1.92;0.70;;;;;;;15.42;68.27;99341.06;5043397;28;20136;-90
2023/04/11 11:14:34;;;;;;;3.22;0.80;;;;;;;15.55;65.67;99300.38;5042080;28;20087;-90
2023/04/11 11:17:02;;;;;;;1.42;0.73;;;;;;;15.68;65.34;99283.56;5037010;28;20082;-89
2023/04/11 11:19:29;;;;;;;0.68;0.60;;;;;;;15.86;65.71;99348.03;5030772;28;20052;-89
2023/04/11 11:22:02;;;;;;;1.35;0.70;;;;;;;15.68;64.95;99329.25;5036633;28;20057;-90
2023/04/11 11:24:29;;;;;;;1.05;0.70;;;;;;;15.27;66.52;99266.66;5037472;28;20063;-89
2023/04/11 11:26:57;;;;;;;1.58;0.65;;;;;;;15.51;65.57;99306.88;5044123;28;20045;-90
2023/04/11 11:29:34;;;;;;;1.20;0.60;;;;;;;14.70;65.50;99247.47;5037058;28;20072;-90
2023/04/11 11:32:02;;;;;;;1.95;0.70;;;;;;;14.91;63.50;99265.97;5034938;28;20049;-89
2023/04/11 11:34:33;;;;;;;0.77;0.60;;;;;;;14.98;63.35;99320.75;5054424;28;20049;-89
2023/04/11 11:37:05;;;;;;;1.33;0.70;;;;;;;14.58;64.17;99246.63;5037568;28;20095;-90
2023/04/11 11:39:33;;;;;;;0.60;0.60;;;;;;;14.85;64.13;99308.66;5036991;28;20049;-90
2023/04/11 11:42:00;;;;;;;4.03;0.70;;;;;;;15.13;63.13;99297.59;5054513;28;20060;-90